Terminal Aerodrome Forecast
Issued by NWS Cleveland, OH

Home | Current Version | Previous Version | Text Only | Print | Product List | Glossary Off
Versions: 1 2 3 4 5 6 7 8 9 10 11 12 13 14 15 16 17 18

000
FTUS41 KCLE 051720
TAFCAK
TAF
KCAK 051720Z 0518/0618 26008KT P6SM OVC022
     FM052100 24008KT P6SM SCT022 BKN045
      TEMPO 0521/0523 BKN022
     FM052300 VRB03KT P6SM SCT045 BKN150
     FM061000 10012KT P6SM SCT025 OVC045
      TEMPO 0610/0614 OVC025
     FM061400 12012KT 5SM -RA BR OVC012=

USA.gov is the U.S. government's official web portal to all federal, state and local government web resources and services.